sensor_id;sensor_type;location;lat;lon;timestamp;pressure;altitude;pressure_sealevel;temperature;humidity
54546;BME280;40444;45.184;9.850;2023-12-28T00:00:55;102065.44;;;9.20;100.00
54546;BME280;40444;45.184;9.850;2023-12-28T00:03:23;102064.75;;;9.17;100.00
54546;BME280;40444;45.184;9.850;2023-12-28T00:05:52;102070.78;;;9.20;100.00
54546;BME280;40444;45.184;9.850;2023-12-28T00:08:21;102065.50;;;9.19;100.00
54546;BME280;40444;45.184;9.850;2023-12-28T00:10:50;102074.50;;;9.18;100.00
54546;BME280;40444;45.184;9.850;2023-12-28T00:13:19;102084.78;;;9.09;100.00
54546;BME280;40444;45.184;9.850;2023-12-28T00:15:47;102075.16;;;9.07;100.00
54546;BME280;40444;45.184;9.850;2023-12-28T00:18:16;102074.94;;;9.10;100.00
54546;BME280;40444;45.184;9.850;2023-12-28T00:20:47;102069.31;;;9.15;100.00
54546;BME280;40444;45.184;9.850;2023-12-28T00:23:16;102070.16;;;9.15;100.00
54546;BME280;40444;45.184;9.850;2023-12-28T00:25:45;102070.00;;;9.18;100.00
54546;BME280;40444;45.184;9.850;2023-12-28T00:28:13;102066.19;;;9.22;100.00
54546;BME280;40444;45.184;9.850;2023-12-28T00:30:42;102064.28;;;9.24;100.00
54546;BME280;40444;45.184;9.850;2023-12-28T00:33:11;102079.44;;;9.24;100.00
54546;BME280;40444;45.184;9.850;2023-12-28T00:35:40;102071.53;;;9.22;100.00
54546;BME280;40444;45.184;9.850;2023-12-28T00:38:08;102070.69;;;9.22;100.00
54546;BME280;40444;45.184;9.850;2023-12-28T00:40:37;102081.75;;;9.16;100.00
54546;BME280;40444;45.184;9.850;2023-12-28T00:43:05;102087.00;;;9.17;100.00
54546;BME280;40444;45.184;9.850;2023-12-28T00:45:34;102076.97;;;9.21;100.00
54546;BME280;40444;45.184;9.850;2023-12-28T00:48:03;102075.84;;;9.25;100.00
54546;BME280;40444;45.184;9.850;2023-12-28T00:50:32;102060.66;;;9.25;100.00
54546;BME280;40444;45.184;9.850;2023-12-28T00:53:00;102083.78;;;9.26;100.00
54546;BME280;40444;45.184;9.850;2023-12-28T00:55:29;102082.06;;;9.25;100.00
54546;BME280;40444;45.184;9.850;2023-12-28T00:57:58;102076.13;;;9.20;100.00
54546;BME280;40444;45.184;9.850;2023-12-28T01:00:27;102069.81;;;9.21;100.00
54546;BME280;40444;45.184;9.850;2023-12-28T01:02:57;102077.66;;;9.24;100.00
54546;BME280;40444;45.184;9.850;2023-12-28T01:05:26;102070.69;;;9.22;100.00
54546;BME280;40444;45.184;9.850;2023-12-28T01:07:56;102080.34;;;9.24;100.00
54546;BME280;40444;45.184;9.850;2023-12-28T01:10:27;102081.00;;;9.28;100.00
54546;BME280;40444;45.184;9.850;2023-12-28T01:12:55;102077.56;;;9.26;100.00
54546;BME280;40444;45.184;9.850;2023-12-28T01:15:25;102073.25;;;9.23;100.00
54546;BME280;40444;45.184;9.850;2023-12-28T01:17:53;102066.00;;;9.25;100.00
54546;BME280;40444;45.184;9.850;2023-12-28T01:20:24;102065.06;;;9.26;100.00
54546;BME280;40444;45.184;9.850;2023-12-28T01:22:53;102067.72;;;9.26;100.00
54546;BME280;40444;45.184;9.850;2023-12-28T01:25:21;102067.72;;;9.26;100.00
54546;BME280;40444;45.184;9.850;2023-12-28T01:27:50;102066.88;;;9.26;100.00
54546;BME280;40444;45.184;9.850;2023-12-28T01:30:19;102065.59;;;9.17;100.00
54546;BME280;40444;45.184;9.850;2023-12-28T01:32:47;102064.47;;;9.21;100.00
54546;BME280;40444;45.184;9.850;2023-12-28T01:35:16;102066.75;;;9.27;100.00
54546;BME280;40444;45.184;9.850;2023-12-28T01:37:45;102053.22;;;9.30;100.00
54546;BME280;40444;45.184;9.850;2023-12-28T01:40:15;102063.91;;;9.30;100.00
54546;BME280;40444;45.184;9.850;2023-12-28T01:42:45;102063.72;;;9.33;100.00
54546;BME280;40444;45.184;9.850;2023-12-28T01:45:13;102058.97;;;9.39;100.00
54546;BME280;40444;45.184;9.850;2023-12-28T01:47:42;102057.03;;;9.41;100.00
54546;BME280;40444;45.184;9.850;2023-12-28T01:50:11;102064.03;;;9.43;100.00
54546;BME280;40444;45.184;9.850;2023-12-28T01:52:40;102062.31;;;9.42;100.00
54546;BME280;40444;45.184;9.850;2023-12-28T01:55:09;102059.91;;;9.38;100.00
54546;BME280;40444;45.184;9.850;2023-12-28T01:57:38;102054.66;;;9.36;100.00
54546;BME280;40444;45.184;9.850;2023-12-28T02:00:07;102059.25;;;9.34;100.00
54546;BME280;40444;45.184;9.850;2023-12-28T02:02:41;102057.41;;;9.34;100.00
54546;BME280;40444;45.184;9.850;2023-12-28T02:05:11;102070.22;;;9.29;100.00
54546;BME280;40444;45.184;9.850;2023-12-28T02:07:41;102059.88;;;9.23;100.00
54546;BME280;40444;45.184;9.850;2023-12-28T02:10:09;102052.72;;;9.24;100.00
54546;BME280;40444;45.184;9.850;2023-12-28T02:12:38;102055.88;;;9.30;100.00
54546;BME280;40444;45.184;9.850;2023-12-28T02:15:07;102052.53;;;9.27;100.00
54546;BME280;40444;45.184;9.850;2023-12-28T02:17:42;102046.22;;;9.28;100.00
54546;BME280;40444;45.184;9.850;2023-12-28T02:20:12;102048.91;;;9.28;100.00
54546;BME280;40444;45.184;9.850;2023-12-28T02:22:43;102050.72;;;9.27;100.00
54546;BME280;40444;45.184;9.850;2023-12-28T02:25:12;102046.44;;;9.25;100.00
54546;BME280;40444;45.184;9.850;2023-12-28T02:27:45;102047.88;;;9.30;100.00
54546;BME280;40444;45.184;9.850;2023-12-28T02:30:20;102039.84;;;9.30;100.00
54546;BME280;40444;45.184;9.850;2023-12-28T02:33:12;102035.44;;;9.29;100.00
54546;BME280;40444;45.184;9.850;2023-12-28T02:36:02;102045.38;;;9.27;100.00
54546;BME280;40444;45.184;9.850;2023-12-28T02:38:36;102052.25;;;9.31;100.00
54546;BME280;40444;45.184;9.850;2023-12-28T02:41:05;102040.59;;;9.32;100.00
54546;BME280;40444;45.184;9.850;2023-12-28T02:43:34;102039.66;;;9.33;100.00
54546;BME280;40444;45.184;9.850;2023-12-28T02:46:03;102034.66;;;9.27;100.00
54546;BME280;40444;45.184;9.850;2023-12-28T02:48:32;102029.88;;;9.32;100.00
54546;BME280;40444;45.184;9.850;2023-12-28T02:51:00;102040.31;;;9.37;100.00
54546;BME280;40444;45.184;9.850;2023-12-28T02:53:29;102036.50;;;9.41;100.00
54546;BME280;40444;45.184;9.850;2023-12-28T02:55:57;102030.44;;;9.23;100.00
54546;BME280;40444;45.184;9.850;2023-12-28T02:58:25;102025.50;;;9.17;100.00
54546;BME280;40444;45.184;9.850;2023-12-28T03:00:54;102021.66;;;9.07;100.00
54546;BME280;40444;45.184;9.850;2023-12-28T03:03:23;102017.25;;;9.06;100.00
54546;BME280;40444;45.184;9.850;2023-12-28T03:05:52;102019.84;;;9.07;100.00
54546;BME280;40444;45.184;9.850;2023-12-28T03:08:20;102016.78;;;9.14;100.00
54546;BME280;40444;45.184;9.850;2023-12-28T03:10:50;102007.63;;;9.18;100.00
54546;BME280;40444;45.184;9.850;2023-12-28T03:13:21;102005.81;;;9.18;100.00
54546;BME280;40444;45.184;9.850;2023-12-28T03:15:50;101998.47;;;9.22;100.00
54546;BME280;40444;45.184;9.850;2023-12-28T03:18:18;102007.16;;;9.25;100.00
54546;BME280;40444;45.184;9.850;2023-12-28T03:20:47;101996.47;;;9.25;100.00
54546;BME280;40444;45.184;9.850;2023-12-28T03:23:16;102000.19;;;9.23;100.00
54546;BME280;40444;45.184;9.850;2023-12-28T03:25:44;102003.81;;;9.22;100.00
54546;BME280;40444;45.184;9.850;2023-12-28T03:28:13;102000.28;;;9.21;100.00
54546;BME280;40444;45.184;9.850;2023-12-28T03:30:42;101999.50;;;9.19;100.00
54546;BME280;40444;45.184;9.850;2023-12-28T03:33:10;101989.78;;;9.18;100.00
54546;BME280;40444;45.184;9.850;2023-12-28T03:35:39;102004.22;;;9.16;100.00
54546;BME280;40444;45.184;9.850;2023-12-28T03:38:07;102007.75;;;9.16;100.00
54546;BME280;40444;45.184;9.850;2023-12-28T03:40:36;102001.53;;;9.16;100.00
54546;BME280;40444;45.184;9.850;2023-12-28T03:43:05;102006.66;;;9.19;100.00
54546;BME280;40444;45.184;9.850;2023-12-28T03:45:34;101990.34;;;9.09;100.00
54546;BME280;40444;45.184;9.850;2023-12-28T03:48:03;101989.59;;;9.07;100.00
54546;BME280;40444;45.184;9.850;2023-12-28T03:50:32;101987.66;;;9.09;100.00
54546;BME280;40444;45.184;9.850;2023-12-28T03:53:02;101989.00;;;9.16;100.00
54546;BME280;40444;45.184;9.850;2023-12-28T03:55:30;101987.59;;;9.25;100.00
54546;BME280;40444;45.184;9.850;2023-12-28T03:57:59;101983.28;;;9.22;100.00
54546;BME280;40444;45.184;9.850;2023-12-28T04:00:29;101988.53;;;9.24;100.00
54546;BME280;40444;45.184;9.850;2023-12-28T04:02:58;101983.28;;;9.22;100.00
54546;BME280;40444;45.184;9.850;2023-12-28T04:05:28;101982.31;;;9.23;100.00
54546;BME280;40444;45.184;9.850;2023-12-28T04:07:57;101980.13;;;9.16;100.00
54546;BME280;40444;45.184;9.850;2023-12-28T04:10:31;101970.00;;;9.21;100.00
54546;BME280;40444;45.184;9.850;2023-12-28T04:13:00;101970.19;;;9.18;100.00
54546;BME280;40444;45.184;9.850;2023-12-28T04:15:35;101971.91;;;9.19;100.00
54546;BME280;40444;45.184;9.850;2023-12-28T04:18:04;101966.94;;;9.13;100.00
54546;BME280;40444;45.184;9.850;2023-12-28T04:20:33;101973.44;;;9.08;100.00
54546;BME280;40444;45.184;9.850;2023-12-28T04:23:01;101977.81;;;9.09;100.00
54546;BME280;40444;45.184;9.850;2023-12-28T04:25:29;101973.25;;;9.11;100.00
54546;BME280;40444;45.184;9.850;2023-12-28T04:27:59;101981.28;;;9.11;100.00
54546;BME280;40444;45.184;9.850;2023-12-28T04:30:41;101980.50;;;9.09;100.00
54546;BME280;40444;45.184;9.850;2023-12-28T04:33:10;101982.31;;;9.09;100.00
54546;BME280;40444;45.184;9.850;2023-12-28T04:35:39;101985.94;;;9.08;100.00
54546;BME280;40444;45.184;9.850;2023-12-28T04:38:08;101998.19;;;9.12;100.00
54546;BME280;40444;45.184;9.850;2023-12-28T04:40:37;101994.44;;;9.15;100.00
54546;BME280;40444;45.184;9.850;2023-12-28T04:43:06;101994.38;;;9.16;100.00
54546;BME280;40444;45.184;9.850;2023-12-28T04:45:34;102006.88;;;9.16;100.00
54546;BME280;40444;45.184;9.850;2023-12-28T04:48:04;101992.84;;;9.12;100.00
54546;BME280;40444;45.184;9.850;2023-12-28T04:50:34;101995.50;;;9.12;100.00
54546;BME280;40444;45.184;9.850;2023-12-28T04:53:06;101993.59;;;9.14;100.00
54546;BME280;40444;45.184;9.850;2023-12-28T04:55:34;102001.13;;;9.22;100.00
54546;BME280;40444;45.184;9.850;2023-12-28T04:58:03;102000.28;;;9.21;100.00
54546;BME280;40444;45.184;9.850;2023-12-28T05:00:32;102002.00;;;9.22;100.00
54546;BME280;40444;45.184;9.850;2023-12-28T05:03:01;102005.47;;;9.24;100.00
54546;BME280;40444;45.184;9.850;2023-12-28T05:05:30;102010.53;;;9.29;100.00
54546;BME280;40444;45.184;9.850;2023-12-28T05:07:58;102011.72;;;9.23;100.00
54546;BME280;40444;45.184;9.850;2023-12-28T05:10:27;102016.22;;;9.23;100.00
54546;BME280;40444;45.184;9.850;2023-12-28T05:12:56;102025.97;;;9.24;100.00
54546;BME280;40444;45.184;9.850;2023-12-28T05:15:29;102019.75;;;9.23;100.00
54546;BME280;40444;45.184;9.850;2023-12-28T05:17:57;102018.03;;;9.22;100.00
54546;BME280;40444;45.184;9.850;2023-12-28T05:20:26;102018.22;;;9.19;100.00
54546;BME280;40444;45.184;9.850;2023-12-28T05:22:54;102017.19;;;9.22;100.00
54546;BME280;40444;45.184;9.850;2023-12-28T17:06:57;101879.28;;;8.30;100.00
54546;BME280;40444;45.184;9.850;2023-12-28T17:09:26;101869.78;;;8.41;100.00
54546;BME280;40444;45.184;9.850;2023-12-28T17:12:12;101868.16;;;8.52;100.00
54546;BME280;40444;45.184;9.850;2023-12-28T17:14:41;101865.16;;;8.58;100.00
54546;BME280;40444;45.184;9.850;2023-12-28T17:17:09;101877.16;;;8.66;100.00
54546;BME280;40444;45.184;9.850;2023-12-28T17:19:38;101870.31;;;8.76;100.00
54546;BME280;40444;45.184;9.850;2023-12-28T17:22:08;101868.03;;;8.84;100.00
54546;BME280;40444;45.184;9.850;2023-12-28T17:24:47;101874.81;;;8.90;100.00
54546;BME280;40444;45.184;9.850;2023-12-28T17:27:27;101874.50;;;8.94;100.00
54546;BME280;40444;45.184;9.850;2023-12-28T17:30:00;101869.84;;;8.98;100.00
54546;BME280;40444;45.184;9.850;2023-12-28T17:32:32;101868.03;;;8.98;100.00
54546;BME280;40444;45.184;9.850;2023-12-28T17:35:05;101879.47;;;9.00;100.00
54546;BME280;40444;45.184;9.850;2023-12-28T17:37:35;101874.91;;;9.02;100.00
54546;BME280;40444;45.184;9.850;2023-12-28T17:40:04;101880.25;;;9.02;100.00
54546;BME280;40444;45.184;9.850;2023-12-28T17:42:35;101876.91;;;8.99;100.00
54546;BME280;40444;45.184;9.850;2023-12-28T17:45:09;101876.97;;;8.97;100.00
54546;BME280;40444;45.184;9.850;2023-12-28T17:48:04;101884.53;;;9.05;100.00
54546;BME280;40444;45.184;9.850;2023-12-28T17:50:38;101881.38;;;9.13;100.00
54546;BME280;40444;45.184;9.850;2023-12-28T17:53:07;101887.19;;;9.19;100.00
54546;BME280;40444;45.184;9.850;2023-12-28T17:55:36;101888.63;;;9.25;100.00
54546;BME280;40444;45.184;9.850;2023-12-28T17:58:04;101897.28;;;9.28;100.00
54546;BME280;40444;45.184;9.850;2023-12-28T18:00:34;101898.19;;;9.29;100.00
54546;BME280;40444;45.184;9.850;2023-12-28T18:03:06;101902.66;;;9.28;100.00
54546;BME280;40444;45.184;9.850;2023-12-28T18:05:34;101887.38;;;9.30;100.00
54546;BME280;40444;45.184;9.850;2023-12-28T18:08:03;101903.13;;;9.35;100.00
54546;BME280;40444;45.184;9.850;2023-12-28T18:10:32;101910.88;;;9.40;100.00
54546;BME280;40444;45.184;9.850;2023-12-28T18:13:01;101900.16;;;9.40;100.00
54546;BME280;40444;45.184;9.850;2023-12-28T18:15:30;101884.00;;;9.41;100.00
54546;BME280;40444;45.184;9.850;2023-12-28T18:17:58;101888.41;;;9.42;100.00
54546;BME280;40444;45.184;9.850;2023-12-28T18:20:27;101888.31;;;9.44;100.00
54546;BME280;40444;45.184;9.850;2023-12-28T18:22:56;101884.13;;;9.40;100.00
54546;BME280;40444;45.184;9.850;2023-12-28T18:25:25;101869.78;;;9.41;100.00
54546;BME280;40444;45.184;9.850;2023-12-28T18:27:55;101874.16;;;9.42;100.00
54546;BME280;40444;45.184;9.850;2023-12-28T18:30:24;101876.66;;;9.45;100.00
54546;BME280;40444;45.184;9.850;2023-12-28T18:32:53;101881.03;;;9.46;100.00
54546;BME280;40444;45.184;9.850;2023-12-28T18:35:23;101869.19;;;9.50;100.00
54546;BME280;40444;45.184;9.850;2023-12-28T18:37:52;101870.31;;;9.46;100.00
54546;BME280;40444;45.184;9.850;2023-12-28T18:40:20;101866.25;;;9.40;100.00
54546;BME280;40444;45.184;9.850;2023-12-28T18:42:50;101862.81;;;9.38;100.00
54546;BME280;40444;45.184;9.850;2023-12-28T18:45:19;101867.94;;;9.41;100.00
54546;BME280;40444;45.184;9.850;2023-12-28T18:47:47;101865.09;;;9.44;100.00
54546;BME280;40444;45.184;9.850;2023-12-28T18:50:16;101859.44;;;9.49;100.00
54546;BME280;40444;45.184;9.850;2023-12-28T18:52:44;101857.72;;;9.48;100.00
54546;BME280;40444;45.184;9.850;2023-12-28T18:55:13;101852.56;;;9.45;100.00
54546;BME280;40444;45.184;9.850;2023-12-28T18:57:42;101865.19;;;9.43;100.00
54546;BME280;40444;45.184;9.850;2023-12-28T19:00:11;101855.44;;;9.42;100.00
54546;BME280;40444;45.184;9.850;2023-12-28T19:02:39;101849.34;;;9.40;100.00
54546;BME280;40444;45.184;9.850;2023-12-28T19:05:08;101856.41;;;9.41;100.00
54546;BME280;40444;45.184;9.850;2023-12-28T19:07:37;101858.03;;;9.43;100.00
54546;BME280;40444;45.184;9.850;2023-12-28T19:10:05;101864.03;;;9.47;100.00
54546;BME280;40444;45.184;9.850;2023-12-28T19:12:34;101864.03;;;9.47;100.00
54546;BME280;40444;45.184;9.850;2023-12-28T19:15:03;101866.81;;;9.45;100.00
54546;BME280;40444;45.184;9.850;2023-12-28T19:17:31;101873.00;;;9.46;100.00
54546;BME280;40444;45.184;9.850;2023-12-28T19:20:00;101873.97;;;9.45;100.00
54546;BME280;40444;45.184;9.850;2023-12-28T19:22:29;101867.47;;;9.49;100.00
54546;BME280;40444;45.184;9.850;2023-12-28T19:24:58;101876.16;;;9.52;100.00
54546;BME280;40444;45.184;9.850;2023-12-28T19:27:28;101879.50;;;9.56;100.00
54546;BME280;40444;45.184;9.850;2023-12-28T19:29:56;101873.38;;;9.54;100.00
54546;BME280;40444;45.184;9.850;2023-12-28T19:32:26;101868.88;;;9.54;100.00
54546;BME280;40444;45.184;9.850;2023-12-28T19:34:54;101872.41;;;9.55;100.00
54546;BME280;40444;45.184;9.850;2023-12-28T19:37:26;101873.38;;;9.54;100.00
54546;BME280;40444;45.184;9.850;2023-12-28T19:39:55;101872.94;;;9.47;100.00
54546;BME280;40444;45.184;9.850;2023-12-28T19:42:24;101869.41;;;9.47;100.00
54546;BME280;40444;45.184;9.850;2023-12-28T19:44:52;101869.84;;;9.53;100.00
54546;BME280;40444;45.184;9.850;2023-12-28T19:47:21;101861.69;;;9.55;100.00
54546;BME280;40444;45.184;9.850;2023-12-28T19:49:50;101850.00;;;9.43;100.00
54546;BME280;40444;45.184;9.850;2023-12-28T19:52:18;101848.06;;;9.45;100.00
54546;BME280;40444;45.184;9.850;2023-12-28T19:54:50;101842.72;;;9.45;100.00
54546;BME280;40444;45.184;9.850;2023-12-28T19:57:20;101838.34;;;9.44;100.00
54546;BME280;40444;45.184;9.850;2023-12-28T19:59:48;101843.31;;;9.36;100.00
54546;BME280;40444;45.184;9.850;2023-12-28T20:02:17;101841.88;;;9.45;100.00
54546;BME280;40444;45.184;9.850;2023-12-28T20:04:47;101842.94;;;9.28;100.00
54546;BME280;40444;45.184;9.850;2023-12-28T20:07:16;101837.59;;;9.28;100.00
54546;BME280;40444;45.184;9.850;2023-12-28T20:09:45;101835.88;;;9.27;100.00
54546;BME280;40444;45.184;9.850;2023-12-28T20:12:14;101836.84;;;9.26;100.00
54546;BME280;40444;45.184;9.850;2023-12-28T20:14:42;101837.53;;;9.29;100.00
54546;BME280;40444;45.184;9.850;2023-12-28T20:17:13;101842.66;;;9.32;100.00
54546;BME280;40444;45.184;9.850;2023-12-28T20:19:41;101831.47;;;9.40;100.00
54546;BME280;40444;45.184;9.850;2023-12-28T20:22:10;101841.06;;;9.30;100.00
54546;BME280;40444;45.184;9.850;2023-12-28T20:24:39;101845.44;;;9.31;100.00
54546;BME280;40444;45.184;9.850;2023-12-28T20:27:09;101840.28;;;9.28;100.00
54546;BME280;40444;45.184;9.850;2023-12-28T20:29:37;101838.44;;;9.28;100.00
54546;BME280;40444;45.184;9.850;2023-12-28T20:32:07;101841.34;;;9.25;100.00
54546;BME280;40444;45.184;9.850;2023-12-28T20:34:35;101835.59;;;9.31;100.00
54546;BME280;40444;45.184;9.850;2023-12-28T20:37:04;101837.00;;;9.37;100.00
54546;BME280;40444;45.184;9.850;2023-12-28T20:39:33;101843.69;;;9.44;100.00
54546;BME280;40444;45.184;9.850;2023-12-28T20:42:02;101846.34;;;9.44;100.00
54546;BME280;40444;45.184;9.850;2023-12-28T20:44:31;101835.78;;;9.43;100.00
54546;BME280;40444;45.184;9.850;2023-12-28T20:47:00;101837.47;;;9.44;100.00
54546;BME280;40444;45.184;9.850;2023-12-28T20:49:30;101840.28;;;9.42;100.00
54546;BME280;40444;45.184;9.850;2023-12-28T20:52:13;101834.91;;;9.42;100.00
54546;BME280;40444;45.184;9.850;2023-12-28T20:54:41;101837.88;;;9.38;100.00
54546;BME280;40444;45.184;9.850;2023-12-28T20:57:10;101837.66;;;9.41;100.00
54546;BME280;40444;45.184;9.850;2023-12-28T20:59:39;101843.56;;;9.46;100.00
54546;BME280;40444;45.184;9.850;2023-12-28T21:02:12;101839.31;;;9.43;100.00
54546;BME280;40444;45.184;9.850;2023-12-28T21:04:41;101845.69;;;9.41;100.00
54546;BME280;40444;45.184;9.850;2023-12-28T21:07:11;101840.28;;;9.42;100.00
54546;BME280;40444;45.184;9.850;2023-12-28T21:09:40;101839.19;;;9.45;100.00
54546;BME280;40444;45.184;9.850;2023-12-28T21:12:09;101836.50;;;9.45;100.00
54546;BME280;40444;45.184;9.850;2023-12-28T21:14:40;101830.97;;;9.48;100.00
54546;BME280;40444;45.184;9.850;2023-12-28T21:17:09;101824.78;;;9.47;100.00
54546;BME280;40444;45.184;9.850;2023-12-28T21:19:38;101824.78;;;9.47;100.00
54546;BME280;40444;45.184;9.850;2023-12-28T21:22:14;101830.19;;;9.46;100.00
54546;BME280;40444;45.184;9.850;2023-12-28T21:24:43;101830.69;;;9.52;100.00
54546;BME280;40444;45.184;9.850;2023-12-28T21:27:12;101829.28;;;9.59;100.00
54546;BME280;40444;45.184;9.850;2023-12-28T21:29:41;101833.59;;;9.62;100.00
54546;BME280;40444;45.184;9.850;2023-12-28T21:32:09;101832.84;;;9.60;100.00
54546;BME280;40444;45.184;9.850;2023-12-28T21:34:38;101830.38;;;9.57;100.00
54546;BME280;40444;45.184;9.850;2023-12-28T21:37:06;101823.94;;;9.59;100.00
54546;BME280;40444;45.184;9.850;2023-12-28T21:39:35;101823.56;;;9.66;100.00
54546;BME280;40444;45.184;9.850;2023-12-28T21:42:04;101829.75;;;9.66;100.00
54546;BME280;40444;45.184;9.850;2023-12-28T21:44:33;101831.47;;;9.67;100.00
54546;BME280;40444;45.184;9.850;2023-12-28T21:47:01;101828.97;;;9.64;100.00
54546;BME280;40444;45.184;9.850;2023-12-28T21:49:30;101831.88;;;9.61;100.00
54546;BME280;40444;45.184;9.850;2023-12-28T21:51:58;101816.78;;;9.60;100.00
54546;BME280;40444;45.184;9.850;2023-12-28T21:54:28;101830.81;;;9.63;100.00
54546;BME280;40444;45.184;9.850;2023-12-28T21:56:57;101835.13;;;9.66;100.00
54546;BME280;40444;45.184;9.850;2023-12-28T21:59:25;101837.78;;;9.66;100.00
54546;BME280;40444;45.184;9.850;2023-12-28T22:01:54;101837.28;;;9.74;100.00
54546;BME280;40444;45.184;9.850;2023-12-28T22:04:23;101838.88;;;9.76;100.00
54546;BME280;40444;45.184;9.850;2023-12-28T22:06:52;101830.66;;;9.79;100.00
54546;BME280;40444;45.184;9.850;2023-12-28T22:09:21;101840.41;;;9.80;100.00
54546;BME280;40444;45.184;9.850;2023-12-28T22:11:51;101837.41;;;9.85;100.00
54546;BME280;40444;45.184;9.850;2023-12-28T22:14:19;101841.25;;;9.81;100.00
54546;BME280;40444;45.184;9.850;2023-12-28T22:16:50;101836.75;;;9.81;100.00
54546;BME280;40444;45.184;9.850;2023-12-28T22:19:20;101840.50;;;9.79;100.00
54546;BME280;40444;45.184;9.850;2023-12-28T22:21:50;101838.34;;;9.71;100.00
54546;BME280;40444;45.184;9.850;2023-12-28T22:24:19;101837.47;;;9.71;100.00
54546;BME280;40444;45.184;9.850;2023-12-28T22:26:48;101842.06;;;9.69;100.00
54546;BME280;40444;45.184;9.850;2023-12-28T22:29:16;101839.97;;;9.74;100.00
54546;BME280;40444;45.184;9.850;2023-12-28T22:31:45;101838.44;;;9.70;100.00
54546;BME280;40444;45.184;9.850;2023-12-28T22:34:16;101824.00;;;9.72;100.00
54546;BME280;40444;45.184;9.850;2023-12-28T22:36:45;101821.53;;;9.69;100.00
54546;BME280;40444;45.184;9.850;2023-12-28T22:39:15;101823.75;;;9.62;100.00
54546;BME280;40444;45.184;9.850;2023-12-28T22:41:43;101828.06;;;9.51;100.00
54546;BME280;40444;45.184;9.850;2023-12-28T22:44:12;101828.31;;;9.48;100.00
54546;BME280;40444;45.184;9.850;2023-12-28T22:46:42;101827.53;;;9.46;100.00
54546;BME280;40444;45.184;9.850;2023-12-28T22:49:11;101835.34;;;9.49;100.00
54546;BME280;40444;45.184;9.850;2023-12-28T22:51:40;101837.72;;;9.53;100.00
54546;BME280;40444;45.184;9.850;2023-12-28T22:54:09;101827.63;;;9.44;100.00
54546;BME280;40444;45.184;9.850;2023-12-28T22:56:38;101832.25;;;9.42;100.00
54546;BME280;40444;45.184;9.850;2023-12-28T22:59:06;101831.72;;;9.50;100.00
54546;BME280;40444;45.184;9.850;2023-12-28T23:01:36;101831.63;;;9.51;100.00
54546;BME280;40444;45.184;9.850;2023-12-28T23:04:06;101828.25;;;9.62;100.00
54546;BME280;40444;45.184;9.850;2023-12-28T23:06:34;101819.25;;;9.63;100.00
54546;BME280;40444;45.184;9.850;2023-12-28T23:09:05;101807.56;;;9.64;100.00
54546;BME280;40444;45.184;9.850;2023-12-28T23:11:36;101815.41;;;9.67;100.00
54546;BME280;40444;45.184;9.850;2023-12-28T23:14:07;101809.50;;;9.62;100.00
54546;BME280;40444;45.184;9.850;2023-12-28T23:16:37;101803.44;;;9.73;100.00
54546;BME280;40444;45.184;9.850;2023-12-28T23:19:20;101805.41;;;9.83;100.00
54546;BME280;40444;45.184;9.850;2023-12-28T23:21:50;101802.94;;;9.80;100.00
54546;BME280;40444;45.184;9.850;2023-12-28T23:24:18;101807.31;;;9.81;100.00
54546;BME280;40444;45.184;9.850;2023-12-28T23:26:47;101809.88;;;9.70;100.00
54546;BME280;40444;45.184;9.850;2023-12-28T23:29:16;101807.06;;;9.72;100.00
54546;BME280;40444;45.184;9.850;2023-12-28T23:31:45;101805.06;;;9.75;100.00
54546;BME280;40444;45.184;9.850;2023-12-28T23:34:14;101792.59;;;9.61;100.00
54546;BME280;40444;45.184;9.850;2023-12-28T23:36:56;101800.16;;;9.55;100.00
54546;BME280;40444;45.184;9.850;2023-12-28T23:39:25;101792.66;;;9.47;100.00
54546;BME280;40444;45.184;9.850;2023-12-28T23:41:53;101786.34;;;9.48;100.00
54546;BME280;40444;45.184;9.850;2023-12-28T23:44:22;101787.94;;;9.51;100.00
54546;BME280;40444;45.184;9.850;2023-12-28T23:46:50;101778.75;;;9.55;100.00
54546;BME280;40444;45.184;9.850;2023-12-28T23:49:19;101773.81;;;9.49;100.00
54546;BME280;40444;45.184;9.850;2023-12-28T23:51:48;101772.50;;;9.42;100.00
54546;BME280;40444;45.184;9.850;2023-12-28T23:54:16;101769.53;;;9.46;100.00
54546;BME280;40444;45.184;9.850;2023-12-28T23:56:45;101762.16;;;9.50;100.00
54546;BME280;40444;45.184;9.850;2023-12-28T23:59:13;101752.91;;;9.41;100.00
